Time;durP1;ratioP1;P1;durP2;ratioP2;P2;SDS_P1;SDS_P2;PMS_P1;PMS_P2;Temp;Humidity;BMP_temperature;BMP_pressure;BME280_temperature;BME280_humidity;BME280_pressure;Samples;Min_cycle;Max_cycle;Signal;HPM_P1;HPM_P2
2022/04/01 00:00:10;;;;;;;47.55;9.50;;;;;;;15.57;42.30;92341.56;5105535;28;20015;-75
2022/04/01 00:02:37;;;;;;;42.58;6.35;;;;;;;15.59;42.09;92339.25;5105468;28;20070;-76
2022/04/01 00:05:03;;;;;;;58.03;8.63;;;;;;;15.60;41.69;92340.81;5105193;28;20016;-75
2022/04/01 00:07:28;;;;;;;54.80;7.50;;;;;;;15.63;41.46;92332.78;5105448;28;20066;-76
2022/04/01 00:09:54;;;;;;;49.85;7.57;;;;;;;15.67;41.38;92327.38;5105566;28;20222;-76
2022/04/01 00:12:20;;;;;;;44.53;8.35;;;;;;;15.74;41.14;92332.81;5105382;28;20020;-76
2022/04/01 00:14:45;;;;;;;41.75;8.15;;;;;;;15.79;40.59;92329.75;5105251;28;20260;-76
2022/04/01 00:17:10;;;;;;;37.17;6.72;;;;;;;15.84;40.46;92337.41;5105184;28;20016;-76
2022/04/01 00:19:36;;;;;;;38.40;8.30;;;;;;;15.89;40.51;92325.53;5105129;28;20024;-75
2022/04/01 00:22:02;;;;;;;62.90;9.52;;;;;;;15.96;40.31;92314.03;5105036;28;20044;-75
2022/04/01 00:24:27;;;;;;;58.15;8.70;;;;;;;15.95;40.38;92312.47;5104894;28;20087;-75
2022/04/01 00:26:53;;;;;;;50.90;8.77;;;;;;;15.95;40.49;92312.47;5105308;28;20103;-76
2022/04/01 00:29:20;;;;;;;54.40;8.48;;;;;;;15.96;40.32;92305.97;5105037;28;20028;-76
2022/04/01 00:31:48;;;;;;;67.10;10.43;;;;;;;16.00;39.36;92318.25;5104770;28;20026;-75
2022/04/01 00:34:17;;;;;;;59.45;7.80;;;;;;;16.01;39.87;92329.75;5104792;28;20090;-76
2022/04/01 00:36:45;;;;;;;47.75;9.50;;;;;;;15.82;41.05;92320.91;5104897;28;20027;-76
2022/04/01 00:39:15;;;;;;;59.47;9.38;;;;;;;15.75;40.82;92322.81;5104864;28;20087;-76
2022/04/01 00:41:43;;;;;;;41.00;7.07;;;;;;;15.68;41.42;92322.81;5104828;28;20016;-75
2022/04/01 00:44:20;;;;;;;53.78;11.98;;;;;;;15.63;41.25;92329.28;5104692;28;20016;-76
2022/04/01 00:46:49;;;;;;;55.08;9.52;;;;;;;15.55;41.67;92327.75;5104541;28;20020;-75
2022/04/01 00:49:16;;;;;;;58.47;11.10;;;;;;;15.56;41.79;92340.81;5104704;28;20190;-75
2022/04/01 00:51:43;;;;;;;69.80;12.10;;;;;;;15.55;41.76;92338.50;5104752;28;20027;-76
2022/04/01 00:54:10;;;;;;;56.13;9.25;;;;;;;15.52;42.11;92353.44;5104308;28;20023;-75
2022/04/01 00:56:37;;;;;;;48.90;8.32;;;;;;;15.43;42.88;92356.50;5104305;28;20045;-75
2022/04/01 00:59:03;;;;;;;63.53;8.77;;;;;;;15.34;43.59;92318.50;5104391;28;20034;-76
2022/04/01 01:01:34;;;;;;;41.08;7.53;;;;;;;15.13;44.16;92343.38;5104298;28;20323;-76
2022/04/01 01:04:10;;;;;;;54.17;8.07;;;;;;;15.07;44.72;92344.88;5104118;28;20024;-76
2022/04/01 01:06:41;;;;;;;47.58;7.35;;;;;;;14.99;44.90;92338.72;5104108;28;20032;-76
2022/04/01 01:09:07;;;;;;;49.10;7.55;;;;;;;14.86;45.68;92350.94;5102059;28;20252;-76
2022/04/01 01:11:35;;;;;;;53.00;8.30;;;;;;;14.75;45.93;92345.50;5103984;28;20027;-75
2022/04/01 01:14:01;;;;;;;40.08;9.95;;;;;;;14.70;46.01;92335.16;5104062;28;20043;-75
2022/04/01 01:16:27;;;;;;;40.33;8.75;;;;;;;14.62;46.41;92334.34;5104220;28;20097;-76
2022/04/01 01:19:14;;;;;;;43.25;8.98;;;;;;;14.51;46.56;92322.78;5103982;28;20020;-75
2022/04/01 01:21:40;;;;;;;56.90;10.10;;;;;;;14.48;47.18;92338.81;5103709;28;20028;-76
2022/04/01 01:24:08;;;;;;;48.10;10.30;;;;;;;14.35;47.58;92339.13;5103770;28;20359;-76
2022/04/01 01:26:35;;;;;;;40.30;6.60;;;;;;;14.21;48.32;92325.66;5103738;28;20310;-77
2022/04/01 01:29:03;;;;;;;38.75;7.30;;;;;;;14.08;48.48;92333.19;5103865;28;20222;-76
2022/04/01 01:31:29;;;;;;;52.10;8.75;;;;;;;14.09;48.91;92337.41;5103397;28;20098;-76
2022/04/01 01:33:56;;;;;;;36.67;8.35;;;;;;;14.04;49.44;92333.19;5103908;28;20206;-76
2022/04/01 01:36:23;;;;;;;42.60;8.05;;;;;;;13.97;49.32;92330.44;5103521;28;20317;-76
2022/04/01 01:38:49;;;;;;;52.53;9.57;;;;;;;13.98;49.56;92325.84;5103681;28;20244;-76
2022/04/01 01:41:15;;;;;;;55.55;11.25;;;;;;;13.97;49.46;92321.63;5103370;28;20024;-76
2022/04/01 01:43:43;;;;;;;45.17;8.23;;;;;;;13.88;49.44;92321.16;5103358;28;20077;-77
2022/04/01 01:46:09;;;;;;;54.83;7.60;;;;;;;13.91;49.14;92304.38;5103239;28;20050;-77
2022/04/01 01:48:35;;;;;;;47.58;9.45;;;;;;;13.94;49.08;92303.63;5103245;28;20111;-77
2022/04/01 01:56:29;;;;;;;66.22;8.68;;;;;;;14.08;47.71;92276.16;5103421;28;20051;-77
2022/04/01 01:58:54;;;;;;;62.17;9.98;;;;;;;14.17;47.04;92272.03;5103183;28;20256;-77
2022/04/01 02:01:21;;;;;;;68.10;9.63;;;;;;;14.24;47.29;92287.38;5103332;28;20039;-77
2022/04/01 02:03:47;;;;;;;79.85;10.55;;;;;;;14.29;46.94;92267.47;5102975;28;20024;-77
2022/04/01 02:06:13;;;;;;;62.70;9.00;;;;;;;14.29;46.83;92287.03;5103188;28;20104;-78
2022/04/01 02:08:39;;;;;;;54.85;10.55;;;;;;;14.40;46.73;92268.31;5103086;28;20016;-76
2022/04/01 02:11:05;;;;;;;70.38;10.80;;;;;;;14.36;47.11;92280.94;5101852;28;20724;-76
2022/04/01 02:13:31;;;;;;;72.53;11.93;;;;;;;14.35;47.09;92263.31;5103168;28;20085;-77
2022/04/01 02:15:57;;;;;;;67.82;9.10;;;;;;;14.31;46.95;92265.97;5103136;28;20020;-79
2022/04/01 02:18:22;;;;;;;66.93;9.63;;;;;;;14.34;47.42;92269.81;5102859;28;20322;-76
2022/04/01 02:20:50;;;;;;;57.60;8.55;;;;;;;14.27;46.87;92251.00;5102707;28;20091;-77
2022/04/01 02:23:16;;;;;;;64.63;12.27;;;;;;;14.32;46.71;92246.06;5102881;28;20019;-77
2022/04/01 02:25:43;;;;;;;50.38;9.68;;;;;;;14.35;47.23;92247.22;5102791;28;20020;-78
2022/04/01 02:28:12;;;;;;;60.95;9.65;;;;;;;14.27;47.67;92249.13;5102770;28;20020;-77
2022/04/01 02:30:38;;;;;;;70.25;10.63;;;;;;;14.24;47.19;92225.75;5103011;28;20024;-78
2022/04/01 02:33:06;;;;;;;54.22;11.23;;;;;;;14.23;47.09;92227.66;5102974;28;20023;-77
2022/04/01 02:36:17;;;;;;;69.47;12.18;;;;;;;14.27;47.42;92221.53;5102825;28;20024;-78
2022/04/01 02:38:43;;;;;;;72.13;10.55;;;;;;;14.25;46.70;92211.97;5100820;28;20077;-78
2022/04/01 02:41:13;;;;;;;67.78;9.40;;;;;;;14.25;46.94;92217.31;5101951;28;20040;-77
2022/04/01 02:43:39;;;;;;;69.28;11.35;;;;;;;14.23;46.47;92205.47;5102894;28;20047;-77
2022/04/01 02:46:05;;;;;;;64.70;10.38;;;;;;;14.27;46.48;92192.06;5102697;28;20047;-77
2022/04/01 02:48:31;;;;;;;64.40;10.95;;;;;;;14.29;46.35;92197.81;5102640;28;20028;-78
2022/04/01 02:50:57;;;;;;;58.72;11.13;;;;;;;14.29;45.93;92232.66;5102783;28;20028;-78
2022/04/01 02:53:22;;;;;;;65.25;10.35;;;;;;;14.40;45.99;92215.47;5102618;28;20339;-79
2022/04/01 02:55:48;;;;;;;77.57;12.18;;;;;;;14.44;45.33;92165.31;5102421;28;20051;-78
2022/04/01 02:58:13;;;;;;;54.58;11.38;;;;;;;14.44;45.26;92181.41;5102762;28;20031;-78
2022/04/01 03:00:39;;;;;;;74.80;10.07;;;;;;;14.53;45.30;92181.06;5102763;28;20306;-79
2022/04/01 03:03:07;;;;;;;54.30;9.38;;;;;;;14.55;45.02;92168.06;5102591;28;20037;-80
2022/04/01 03:05:37;;;;;;;58.65;9.02;;;;;;;14.56;45.03;92190.31;5102359;28;20340;-79
2022/04/01 03:08:07;;;;;;;84.50;11.50;;;;;;;14.58;44.84;92199.50;5102657;28;20291;-79
2022/04/01 03:10:34;;;;;;;63.65;11.38;;;;;;;14.60;45.32;92204.47;5101324;28;20225;-79
2022/04/01 03:13:00;;;;;;;80.05;12.90;;;;;;;14.51;45.48;92187.94;5102475;28;20020;-79
2022/04/01 03:15:28;;;;;;;59.58;12.77;;;;;;;14.44;45.84;92176.03;5102680;28;20090;-80
2022/04/01 03:17:55;;;;;;;84.30;12.10;;;;;;;14.40;45.69;92183.31;5102528;28;20040;-79
2022/04/01 03:20:20;;;;;;;104.28;13.88;;;;;;;14.48;45.38;92157.31;5102172;28;20270;-76
2022/04/01 03:22:46;;;;;;;60.90;10.23;;;;;;;14.40;45.09;92159.19;5102303;28;20030;-78
2022/04/01 03:25:15;;;;;;;75.70;11.45;;;;;;;14.45;44.81;92156.16;5102346;28;20031;-80
2022/04/01 03:27:40;;;;;;;91.90;12.75;;;;;;;14.50;44.17;92155.00;5102531;28;20024;-79
2022/04/01 03:30:09;;;;;;;69.75;10.63;;;;;;;14.58;43.53;92145.88;5102283;28;20020;-77
2022/04/01 03:32:37;;;;;;;64.90;12.73;;;;;;;14.68;43.32;92173.09;5105538;28;20081;-77
2022/04/01 03:35:12;;;;;;;79.68;13.55;;;;;;;14.76;43.22;92135.19;5106006;28;20032;-78
2022/04/01 03:37:37;;;;;;;71.20;13.82;;;;;;;14.79;42.87;92117.56;5106096;28;20016;-79
2022/04/01 03:40:03;;;;;;;61.70;11.40;;;;;;;14.81;42.82;92142.09;5106069;28;20088;-79
2022/04/01 03:42:30;;;;;;;68.05;11.15;;;;;;;14.87;42.93;92131.75;5105329;28;20016;-81
2022/04/01 03:45:03;;;;;;;83.18;12.70;;;;;;;14.92;42.62;92123.31;5105974;28;20340;-80
2022/04/01 03:47:41;;;;;;;87.82;14.38;;;;;;;14.92;42.20;92134.03;5106357;28;20024;-79
2022/04/01 03:50:10;;;;;;;72.90;12.00;;;;;;;14.96;41.98;92146.34;5106163;28;20024;-78
2022/04/01 03:52:36;;;;;;;88.15;10.32;;;;;;;15.01;41.75;92139.81;5105935;28;20125;-78
2022/04/01 03:55:05;;;;;;;75.38;12.07;;;;;;;15.03;42.00;92132.16;5104760;28;20111;-78
2022/04/01 03:57:36;;;;;;;59.22;10.38;;;;;;;14.96;41.84;92132.91;5105958;28;20408;-78
2022/04/01 04:00:04;;;;;;;90.10;12.45;;;;;;;14.95;42.39;92142.09;5105567;28;20028;-81
2022/04/01 04:02:34;;;;;;;74.93;11.65;;;;;;;14.97;41.71;92086.16;5105965;28;20055;-82
2022/04/01 04:05:01;;;;;;;62.35;10.65;;;;;;;14.97;41.71;92117.59;5105957;28;20020;-80
2022/04/01 04:07:26;;;;;;;85.75;11.55;;;;;;;14.98;42.06;92108.38;5105797;28;20042;-79
2022/04/01 04:09:52;;;;;;;82.03;10.15;;;;;;;14.92;41.72;92109.91;5105953;28;20024;-78
2022/04/01 04:12:19;;;;;;;93.80;11.75;;;;;;;14.95;41.97;92120.63;5105482;28;20034;-80
2022/04/01 04:14:51;;;;;;;108.00;14.45;;;;;;;14.93;41.92;92104.16;5105731;28;20309;-79
2022/04/01 04:17:31;;;;;;;74.78;12.38;;;;;;;14.99;41.25;92078.50;5105747;28;20027;-80
2022/04/01 04:20:02;;;;;;;93.43;12.25;;;;;;;14.98;41.26;92060.88;5105716;28;20080;-80
2022/04/01 04:22:34;;;;;;;75.97;12.37;;;;;;;15.07;41.06;92105.31;5105630;28;20083;-82
2022/04/01 04:25:10;;;;;;;106.13;14.48;;;;;;;15.08;41.53;92117.56;5105454;28;20235;-80
2022/04/01 04:27:40;;;;;;;71.88;10.32;;;;;;;15.07;41.32;92110.69;5105576;28;20339;-81
2022/04/01 04:30:08;;;;;;;73.68;11.48;;;;;;;15.07;41.12;92095.34;5105561;28;20077;-80
2022/04/01 04:32:52;;;;;;;86.30;12.48;;;;;;;15.09;41.05;92119.13;5105478;28;20273;-78
2022/04/01 04:35:20;;;;;;;77.25;12.82;;;;;;;15.11;40.53;92092.69;5105179;28;20080;-79
2022/04/01 04:37:47;;;;;;;80.80;15.52;;;;;;;15.18;40.21;92098.03;5105148;28;20201;-77
2022/04/01 04:40:17;;;;;;;99.10;14.25;;;;;;;15.29;40.19;92080.00;5105199;28;20103;-77
2022/04/01 04:42:48;;;;;;;94.80;15.32;;;;;;;15.38;39.82;92088.41;5105165;28;20019;-78
2022/04/01 04:45:16;;;;;;;85.68;12.73;;;;;;;15.45;39.59;92125.25;5105058;28;20016;-77
2022/04/01 04:47:42;;;;;;;63.88;11.40;;;;;;;15.50;39.50;92129.44;5105096;28;20032;-76
2022/04/01 04:50:10;;;;;;;95.57;13.93;;;;;;;15.57;38.90;92113.31;5104843;28;20027;-76
2022/04/01 04:52:39;;;;;;;82.78;11.70;;;;;;;15.64;38.94;92081.09;5105079;28;20024;-76
2022/04/01 04:55:11;;;;;;;87.82;13.30;;;;;;;15.69;38.90;92126.34;5104587;28;20031;-76
2022/04/01 04:57:38;;;;;;;90.93;14.48;;;;;;;15.74;38.84;92119.84;5104723;28;20036;-76
2022/04/01 05:00:05;;;;;;;88.05;16.17;;;;;;;15.78;38.62;92121.38;5105011;28;20275;-77
2022/04/01 05:03:07;;;;;;;100.72;15.63;;;;;;;15.83;38.55;92139.78;5104944;28;20240;-77
2022/04/01 05:05:54;;;;;;;62.17;11.00;;;;;;;15.86;38.88;92151.69;5104766;28;20084;-76
2022/04/01 05:08:34;;;;;;;78.32;13.70;;;;;;;15.88;38.44;92130.56;5104629;28;20035;-77
2022/04/01 05:11:08;;;;;;;87.32;15.07;;;;;;;15.91;38.69;92155.88;5104654;28;20028;-77
2022/04/01 05:13:48;;;;;;;75.28;13.30;;;;;;;15.96;38.49;92128.63;5104677;28;20020;-76
2022/04/01 05:16:43;;;;;;;128.77;17.52;;;;;;;15.95;38.48;92141.28;5104543;28;20055;-77
2022/04/01 05:19:12;;;;;;;107.72;13.55;;;;;;;16.02;38.24;92129.75;5104147;28;20069;-77
2022/04/01 05:21:43;;;;;;;71.32;12.88;;;;;;;16.09;38.23;92137.78;5104503;28;20024;-77
2022/04/01 05:24:14;;;;;;;95.45;13.23;;;;;;;16.13;38.26;92164.66;5104423;28;20031;-76
2022/04/01 05:26:52;;;;;;;73.97;13.38;;;;;;;16.16;37.85;92153.91;5104204;28;20064;-76
2022/04/01 05:29:26;;;;;;;92.28;14.18;;;;;;;16.24;37.65;92165.38;5104245;28;20050;-76
2022/04/01 05:32:00;;;;;;;68.70;10.35;;;;;;;16.21;37.82;92136.59;5104022;28;20016;-76
2022/04/01 05:34:34;;;;;;;91.63;12.77;;;;;;;16.25;37.82;92167.69;5104251;28;20012;-76
2022/04/01 05:37:01;;;;;;;82.05;11.90;;;;;;;16.30;37.27;92139.63;5104053;28;20061;-76
2022/04/01 05:39:30;;;;;;;92.18;13.43;;;;;;;16.39;38.05;92169.56;5103727;28;20023;-76
2022/04/01 05:41:56;;;;;;;87.18;12.20;;;;;;;16.37;40.25;92192.63;5103854;28;20027;-76
2022/04/01 05:44:24;;;;;;;62.83;12.25;;;;;;;16.32;41.30;92190.31;5103569;28;20046;-76
2022/04/01 05:46:54;;;;;;;88.43;11.18;;;;;;;16.18;41.83;92181.16;5103831;28;20047;-76
2022/04/01 05:49:21;;;;;;;63.83;9.45;;;;;;;16.15;42.57;92168.47;5103748;28;20042;-76
2022/04/01 05:51:48;;;;;;;72.70;10.70;;;;;;;16.08;42.74;92176.56;5103663;28;20031;-76
2022/04/01 05:54:19;;;;;;;54.92;9.88;;;;;;;15.95;42.91;92162.00;5103022;28;20210;-75
2022/04/01 05:56:46;;;;;;;71.45;10.15;;;;;;;15.88;43.42;92178.16;5103636;28;20020;-76
2022/04/01 05:59:14;;;;;;;63.22;12.18;;;;;;;15.76;43.61;92190.81;5103493;28;20065;-76
2022/04/01 06:01:45;;;;;;;66.80;9.60;;;;;;;15.71;44.06;92158.94;5103399;28;20085;-77
2022/04/01 06:04:34;;;;;;;56.17;9.75;;;;;;;15.69;44.30;92155.88;5103420;28;20027;-77
2022/04/01 06:07:06;;;;;;;61.30;10.55;;;;;;;15.68;44.62;92158.97;5102434;28;20031;-77
2022/04/01 06:09:59;;;;;;;52.67;10.27;;;;;;;15.68;44.74;92175.84;5103584;28;20026;-77
2022/04/01 06:13:14;;;;;;;63.22;8.85;;;;;;;15.60;46.71;92177.75;5102404;28;20041;-87
2022/04/01 06:16:01;;;;;;;43.38;8.13;;;;;;;15.62;46.97;92163.97;5072394;28;20032;-87
2022/04/01 06:18:37;;;;;;;56.13;9.13;;;;;;;15.69;46.29;92165.88;5103851;28;20035;-87
2022/04/01 06:21:04;;;;;;;73.07;10.60;;;;;;;15.72;46.26;92160.53;5104575;28;20041;-88
2022/04/01 06:23:57;;;;;;;64.10;10.25;;;;;;;15.81;45.70;92174.34;5105140;28;20027;-83
2022/04/01 06:26:27;;;;;;;61.38;11.05;;;;;;;15.89;46.07;92182.38;5104317;28;20035;-90
2022/04/01 06:29:03;;;;;;;76.60;12.05;;;;;;;15.99;44.47;92162.78;5104073;28;20043;-79
2022/04/01 06:31:31;;;;;;;71.80;11.52;;;;;;;16.07;44.20;92196.53;5103098;28;20020;-77
2022/04/01 06:34:03;;;;;;;69.10;12.07;;;;;;;16.08;44.09;92195.38;5102631;28;20070;-77
2022/04/01 06:36:35;;;;;;;65.57;11.32;;;;;;;16.12;43.89;92185.41;5102353;28;20315;-77
2022/04/01 06:39:25;;;;;;;72.03;9.95;;;;;;;16.12;44.15;92165.78;5102386;28;20082;-77
2022/04/01 06:41:57;;;;;;;79.88;12.07;;;;;;;16.15;43.80;92175.78;5102403;28;20039;-77
2022/04/01 06:44:23;;;;;;;80.22;12.65;;;;;;;16.20;44.00;92194.97;5102156;28;20020;-76
2022/04/01 06:46:48;;;;;;;81.07;10.25;;;;;;;16.25;43.94;92180.34;5102610;28;20183;-76
2022/04/01 06:49:14;;;;;;;77.47;12.13;;;;;;;16.33;43.74;92183.78;5102659;28;20054;-76
2022/04/01 06:51:42;;;;;;;60.97;8.88;;;;;;;16.46;43.34;92168.75;5102749;28;20073;-77
2022/04/01 06:54:08;;;;;;;81.60;12.20;;;;;;;16.49;43.35;92167.97;5101511;28;20028;-77
2022/04/01 06:56:33;;;;;;;68.25;11.57;;;;;;;16.57;42.82;92169.47;5103275;28;20028;-75
2022/04/01 06:58:59;;;;;;;74.93;11.25;;;;;;;16.67;42.27;92161.75;5102953;28;20259;-80
2022/04/01 07:01:25;;;;;;;63.88;10.18;;;;;;;16.60;40.28;92136.41;5103857;28;20023;-73
2022/04/01 07:03:52;;;;;;;79.45;12.57;;;;;;;16.58;40.74;92149.47;5102168;28;20306;-76
2022/04/01 07:06:18;;;;;;;76.65;11.50;;;;;;;16.71;39.66;92197.47;5101652;28;20016;-76
2022/04/01 07:08:43;;;;;;;69.40;12.43;;;;;;;16.86;39.85;92174.75;5105078;28;20378;-75
2022/04/01 07:11:09;;;;;;;78.68;11.95;;;;;;;16.97;38.73;92164.66;5105843;28;20036;-75
2022/04/01 07:13:34;;;;;;;79.18;11.50;;;;;;;17.08;39.28;92174.63;5106405;28;20225;-75
2022/04/01 07:16:00;;;;;;;76.10;14.20;;;;;;;17.21;39.94;92162.22;5106314;28;20038;-75
2022/04/01 07:18:26;;;;;;;69.45;12.23;;;;;;;17.20;40.52;92160.69;5106415;28;20032;-74
2022/04/01 07:20:52;;;;;;;75.30;10.75;;;;;;;17.17;41.15;92177.63;5106362;28;20105;-74
2022/04/01 07:23:18;;;;;;;72.43;13.07;;;;;;;17.23;41.66;92184.88;5106549;28;20032;-75
2022/04/01 07:25:43;;;;;;;74.93;11.90;;;;;;;17.40;40.54;92204.78;5106417;28;20024;-75
2022/04/01 07:28:12;;;;;;;92.97;12.93;;;;;;;17.40;41.44;92191.31;5106442;28;20051;-76
2022/04/01 07:30:37;;;;;;;65.88;10.02;;;;;;;17.28;41.17;92183.72;5106152;28;20023;-76
2022/04/01 07:33:03;;;;;;;66.15;10.88;;;;;;;17.20;41.49;92176.84;5106691;28;20042;-75
2022/04/01 07:35:30;;;;;;;76.38;11.98;;;;;;;17.10;38.17;92172.31;5107016;28;20020;-76
2022/04/01 07:37:56;;;;;;;70.10;9.90;;;;;;;17.19;39.99;92181.44;5107862;28;20031;-77
2022/04/01 07:40:24;;;;;;;59.05;12.18;;;;;;;17.29;41.02;92158.31;5106931;28;20044;-76
2022/04/01 07:42:50;;;;;;;75.55;11.02;;;;;;;17.41;41.00;92154.38;5106774;28;20073;-74
2022/04/01 07:45:16;;;;;;;65.00;10.63;;;;;;;17.50;39.96;92170.84;5106594;28;20032;-74
2022/04/01 07:47:44;;;;;;;80.85;13.05;;;;;;;17.68;38.54;92172.63;5106048;28;20035;-75
2022/04/01 07:50:10;;;;;;;79.90;12.15;;;;;;;17.76;38.59;92182.94;5106818;28;20069;-76
2022/04/01 07:52:40;;;;;;;76.85;15.13;;;;;;;17.84;37.65;92170.94;5106004;28;20310;-75
2022/04/01 07:55:07;;;;;;;76.90;15.23;;;;;;;17.91;37.39;92148.56;5106367;28;20040;-76
2022/04/01 07:57:32;;;;;;;73.05;12.50;;;;;;;18.02;35.18;92143.06;5106309;28;20055;-75
2022/04/01 07:59:58;;;;;;;74.22;12.32;;;;;;;18.06;35.17;92157.28;5105787;28;20023;-75
2022/04/01 08:02:23;;;;;;;64.20;10.43;;;;;;;18.08;34.91;92165.72;5105811;28;20313;-77
2022/04/01 08:04:49;;;;;;;67.75;12.50;;;;;;;17.99;34.44;92177.00;5105633;28;20012;-77
2022/04/01 08:07:15;;;;;;;81.28;11.07;;;;;;;17.94;34.98;92169.31;5105573;28;20028;-76
2022/04/01 08:09:41;;;;;;;57.40;8.75;;;;;;;18.06;34.19;92154.56;5105564;28;20024;-76
2022/04/01 08:12:08;;;;;;;75.03;12.75;;;;;;;18.07;34.65;92164.19;5105365;28;20042;-75
2022/04/01 08:14:36;;;;;;;90.55;11.88;;;;;;;18.12;33.92;92179.94;5105347;28;20012;-76
2022/04/01 08:17:02;;;;;;;69.35;11.10;;;;;;;18.05;34.38;92171.91;5103915;28;20339;-75
2022/04/01 08:19:28;;;;;;;56.63;9.95;;;;;;;17.99;34.48;92165.41;5105509;28;20028;-75
2022/04/01 08:21:57;;;;;;;71.95;12.82;;;;;;;17.95;33.71;92164.69;5105262;28;20055;-76
2022/04/01 08:24:23;;;;;;;66.95;9.77;;;;;;;17.95;35.03;92170.09;5105341;28;20020;-75
2022/04/01 08:26:48;;;;;;;67.55;10.93;;;;;;;18.06;34.43;92149.19;5105258;28;20061;-75
2022/04/01 08:29:14;;;;;;;56.22;9.32;;;;;;;18.04;34.94;92138.78;5105244;28;20032;-74
2022/04/01 08:31:39;;;;;;;60.92;9.52;;;;;;;18.12;34.44;92155.66;5105163;28;20046;-74
2022/04/01 08:34:05;;;;;;;75.40;11.02;;;;;;;18.14;35.05;92149.88;5105107;28;20028;-73
2022/04/01 08:36:30;;;;;;;66.55;12.18;;;;;;;18.24;34.53;92147.06;5105325;28;20024;-77
2022/04/01 08:38:56;;;;;;;71.70;9.93;;;;;;;17.93;35.47;92161.63;5105032;28;20240;-78
2022/04/01 08:41:22;;;;;;;76.20;11.30;;;;;;;17.66;35.92;92121.81;5105002;28;20091;-76
2022/04/01 08:43:57;;;;;;;69.00;9.48;;;;;;;17.51;36.40;92098.91;5103683;28;20221;-77
2022/04/01 08:46:24;;;;;;;72.57;10.63;;;;;;;17.33;37.15;92121.34;5104846;28;20026;-77
2022/04/01 08:48:50;;;;;;;56.50;10.30;;;;;;;17.29;36.60;92109.84;5104728;28;20031;-77
2022/04/01 08:51:17;;;;;;;73.70;9.80;;;;;;;17.32;36.89;92135.19;5104672;28;20133;-77
2022/04/01 08:53:44;;;;;;;53.10;10.40;;;;;;;17.13;37.76;92102.28;5104773;28;20091;-77
2022/04/01 08:56:11;;;;;;;53.83;9.23;;;;;;;16.98;38.21;92090.84;5104486;28;20054;-79
2022/04/01 08:58:36;;;;;;;61.97;9.68;;;;;;;16.90;38.67;92083.25;5104531;28;20039;-80
2022/04/01 09:01:07;;;;;;;71.25;9.70;;;;;;;16.91;40.07;92080.13;5104811;28;20024;-78
2022/04/01 09:03:35;;;;;;;43.83;8.77;;;;;;;16.79;40.69;92030.25;5103800;28;20060;-78
2022/04/01 09:06:03;;;;;;;70.65;12.15;;;;;;;16.77;41.06;92050.63;5102371;28;20042;-77
2022/04/01 09:08:30;;;;;;;64.40;13.05;;;;;;;16.77;40.02;92069.44;5103026;28;20031;-77
2022/04/01 09:11:08;;;;;;;78.47;15.25;;;;;;;16.87;39.45;92060.56;5102841;28;20055;-77
2022/04/01 09:13:46;;;;;;;66.35;11.85;;;;;;;17.06;39.44;92029.66;5102770;28;20028;-78
2022/04/01 09:16:27;;;;;;;71.78;10.70;;;;;;;17.20;38.68;92053.00;5102482;28;20026;-77
2022/04/01 09:19:02;;;;;;;78.82;12.27;;;;;;;17.21;37.98;92041.81;5102326;28;20024;-78
2022/04/01 09:21:32;;;;;;;45.35;8.10;;;;;;;17.30;37.77;92036.00;5102352;28;20024;-78
2022/04/01 09:23:59;;;;;;;73.00;10.27;;;;;;;17.33;37.90;91986.72;5102455;28;20032;-79
2022/04/01 09:26:33;;;;;;;50.53;8.88;;;;;;;17.16;39.01;92014.59;5103805;28;20273;-75
2022/04/01 09:29:00;;;;;;;53.63;9.70;;;;;;;16.95;42.41;91983.25;5103069;28;20070;-76
2022/04/01 09:31:34;;;;;;;63.92;11.15;;;;;;;16.71;44.08;91974.19;5103989;28;20028;-76
2022/04/01 09:34:01;;;;;;;52.63;12.27;;;;;;;16.44;45.39;91977.47;5104061;28;20247;-76
2022/04/01 09:36:33;;;;;;;61.20;10.00;;;;;;;16.38;42.95;91950.22;5104087;28;20222;-75
2022/04/01 09:42:20;;;;;;;52.72;7.25;;;;;;;16.76;39.91;91922.66;5103876;28;20023;-81
2022/04/01 09:44:46;;;;;;;52.00;11.40;;;;;;;16.90;40.04;91967.53;5103486;28;20031;-82
2022/04/01 09:47:16;;;;;;;59.08;8.63;;;;;;;17.14;39.66;91941.56;5103783;28;20351;-80
2022/04/01 09:49:45;;;;;;;50.15;9.13;;;;;;;17.02;38.75;91973.19;5103880;28;20020;-80
2022/04/01 09:52:13;;;;;;;61.17;10.05;;;;;;;17.17;38.97;91946.13;5103690;28;20091;-80
2022/04/01 09:54:53;;;;;;;55.17;7.43;;;;;;;17.29;38.97;91972.53;5103645;28;20214;-80
2022/04/01 09:57:21;;;;;;;57.80;10.10;;;;;;;17.24;38.41;91984.50;5103555;28;20020;-79
2022/04/01 09:59:48;;;;;;;70.75;10.45;;;;;;;17.21;37.56;91973.78;5103365;28;20022;-79
2022/04/01 10:02:14;;;;;;;50.38;9.48;;;;;;;17.35;38.04;91980.94;5103534;28;20217;-80
2022/04/01 10:04:40;;;;;;;80.07;9.63;;;;;;;17.50;37.16;92000.41;5103012;28;20016;-80
2022/04/01 10:07:07;;;;;;;62.65;9.20;;;;;;;17.42;36.29;91980.84;5103302;28;20024;-79
2022/04/01 10:09:34;;;;;;;49.42;8.80;;;;;;;17.60;37.01;91983.34;5103375;28;20048;-80
2022/04/01 10:12:02;;;;;;;75.18;9.75;;;;;;;17.73;36.12;91981.66;5102881;28;20020;-80
2022/04/01 10:14:30;;;;;;;60.92;9.20;;;;;;;17.73;36.47;92003.22;5103186;28;20191;-80
2022/04/01 10:17:00;;;;;;;79.70;8.43;;;;;;;17.77;36.13;91989.72;5102785;28;20020;-79
2022/04/01 10:19:29;;;;;;;47.17;8.55;;;;;;;17.81;35.85;91993.13;5102565;28;20115;-79
2022/04/01 10:21:56;;;;;;;62.83;10.88;;;;;;;17.97;35.72;91997.94;5103081;28;20085;-80
2022/04/01 10:25:08;;;;;;;49.17;7.43;;;;;;;18.07;35.48;91966.63;5102832;28;20039;-82
2022/04/01 10:27:40;;;;;;;52.73;8.77;;;;;;;18.14;35.01;91947.69;5103023;28;20028;-82
2022/04/01 10:30:07;;;;;;;49.08;9.50;;;;;;;18.08;35.44;91968.19;5103208;28;20266;-81
2022/04/01 10:32:36;;;;;;;44.20;7.93;;;;;;;18.21;35.22;91977.22;5103044;28;20028;-82
2022/04/01 10:35:04;;;;;;;54.53;10.57;;;;;;;18.31;34.81;92016.00;5102923;28;20020;-81
2022/04/01 10:37:31;;;;;;;48.30;7.63;;;;;;;18.09;34.23;91996.66;5102876;28;20024;-80
2022/04/01 10:40:06;;;;;;;57.70;9.10;;;;;;;17.98;34.98;91975.22;5102407;28;20094;-78
2022/04/01 10:42:34;;;;;;;54.03;9.73;;;;;;;18.14;35.07;91978.09;5101672;28;20248;-78
2022/04/01 10:45:03;;;;;;;61.88;8.93;;;;;;;18.30;34.68;91977.50;5102568;28;20039;-79
2022/04/01 10:53:47;;;;;;;38.67;7.28;;;;;;;18.37;34.06;91992.81;5093980;28;20047;-76
2022/04/01 10:56:25;;;;;;;40.13;6.60;;;;;;;18.31;34.13;91976.31;5102595;28;20036;-77
2022/04/01 10:59:13;;;;;;;34.05;6.05;;;;;;;18.54;33.73;91962.13;5102368;28;20040;-79
2022/04/01 11:02:00;;;;;;;44.53;8.35;;;;;;;18.53;34.11;91954.44;5102518;28;20020;-78
2022/04/01 11:04:30;;;;;;;44.58;7.50;;;;;;;18.71;32.95;91954.91;5098573;28;20035;-78
2022/04/01 11:07:14;;;;;;;40.58;6.35;;;;;;;18.90;32.30;91928.41;5102592;28;20059;-77
2022/04/01 11:09:56;;;;;;;39.22;6.63;;;;;;;18.91;32.36;91929.91;5102495;28;20042;-77
2022/04/01 11:12:30;;;;;;;34.53;9.00;;;;;;;19.00;31.90;91957.16;5102624;28;20040;-76
2022/04/01 11:17:25;;;;;;;35.83;7.20;;;;;;;19.22;31.92;91907.00;5102680;28;20054;-76
2022/04/01 11:20:11;;;;;;;47.78;7.40;;;;;;;19.34;31.38;91916.44;5102473;28;20015;-77
2022/04/01 11:22:39;;;;;;;44.60;6.70;;;;;;;19.41;30.57;91907.41;5102306;28;20312;-76
2022/04/01 11:25:06;;;;;;;40.33;6.78;;;;;;;19.24;30.98;91936.28;5102465;28;20024;-80
2022/04/01 11:27:35;;;;;;;40.88;7.22;;;;;;;18.92;31.60;91959.22;5102167;28;20039;-78
2022/04/01 11:30:09;;;;;;;63.08;8.48;;;;;;;18.83;32.61;91967.09;5102382;28;20032;-79
2022/04/01 11:32:38;;;;;;;48.00;7.63;;;;;;;18.68;32.80;91987.34;5102433;28;20044;-82
2022/04/01 11:35:09;;;;;;;31.85;5.88;;;;;;;18.32;33.67;91995.94;5102497;28;20023;-77
2022/04/01 11:37:49;;;;;;;33.33;6.95;;;;;;;18.22;33.97;91968.72;5102359;28;20058;-78
2022/04/01 11:40:22;;;;;;;43.65;7.10;;;;;;;18.12;33.43;91985.81;5102164;28;20020;-80
2022/04/01 11:43:07;;;;;;;37.22;6.72;;;;;;;18.17;33.96;91996.13;5102130;28;20027;-78
2022/04/01 11:45:43;;;;;;;39.42;7.13;;;;;;;18.13;34.21;91992.72;5101972;28;20032;-79
2022/04/01 11:48:31;;;;;;;49.47;7.65;;;;;;;18.07;34.21;91999.75;5102005;28;20039;-78